Terminal Aerodrome Forecast
Issued by NWS

Home | Current Version | Previous Version | Text Only | Print | Product List | Glossary On
Versions: 1 2 3 4 5 6 7 8 9 10 11 12 13 14 15 16 17 18
000
FTUS44 KBMX 232340
TAFTOI
TAF
KTOI 232340Z 2400/2424 31008KT P6SM BKN050
      TEMPO 2402/2406 BKN025 OVC050
     FM240600 29007KT P6SM OVC025
     FM240900 30007KT 6SM BR OVC015
     FM241600 31010KT P6SM BKN025
     FM242000 32012G20KT P6SM SCT250=

USA.gov is the U.S. government's official web portal to all federal, state and local government web resources and services.